Terminal Aerodrome Forecast
Issued by NWS

Home | Current Version | Previous Version | Text Only | Print | Product List | Glossary On
Versions: 1 2 3 4 5 6 7 8 9 10 11 12 13 14 15 16 17 18 19 20 21 22 23 24 25 26 27 28 29
000
FTUS41 KOKX 210522
TAFTEB
TAF
KTEB 210522Z 2106/2206 07004KT 1/2SM -DZ FG OVC003
      TEMPO 2106/2107 2SM TSRA BKN005 OVC010CB
     FM210700 VRB03KT 1/2SM -DZ FG OVC003
     FM211000 26007KT 6SM BR BKN025
     FM211500 28014G22KT P6SM SCT050
     FM220000 24008KT P6SM SCT050=

USA.gov is the U.S. government's official web portal to all federal, state and local government web resources and services.